sensor_id;sensor_type;location;lat;lon;timestamp;temperature;humidity
34985;DHT22;21190;58.750;17.004;2023-07-02T00:00:06;17.10;99.90
34985;DHT22;21190;58.750;17.004;2023-07-02T00:02:38;17.10;99.90
34985;DHT22;21190;58.750;17.004;2023-07-02T00:05:06;17.10;99.90
34985;DHT22;21190;58.750;17.004;2023-07-02T00:07:33;17.10;99.90
34985;DHT22;21190;58.750;17.004;2023-07-02T00:10:04;17.00;99.90
34985;DHT22;21190;58.750;17.004;2023-07-02T00:12:31;17.00;99.90
34985;DHT22;21190;58.750;17.004;2023-07-02T00:15:00;17.00;99.90
34985;DHT22;21190;58.750;17.004;2023-07-02T00:17:27;17.00;99.90
34985;DHT22;21190;58.750;17.004;2023-07-02T00:19:54;17.00;99.90
34985;DHT22;21190;58.750;17.004;2023-07-02T00:22:21;17.00;99.90
34985;DHT22;21190;58.750;17.004;2023-07-02T00:24:48;17.00;99.90
34985;DHT22;21190;58.750;17.004;2023-07-02T00:27:17;17.00;99.90
34985;DHT22;21190;58.750;17.004;2023-07-02T00:29:44;16.90;99.90
34985;DHT22;21190;58.750;17.004;2023-07-02T00:32:11;16.90;99.90
34985;DHT22;21190;58.750;17.004;2023-07-02T00:34:37;16.90;99.90
34985;DHT22;21190;58.750;17.004;2023-07-02T00:37:04;16.90;99.90
34985;DHT22;21190;58.750;17.004;2023-07-02T00:39:31;16.90;99.90
34985;DHT22;21190;58.750;17.004;2023-07-02T00:42:02;16.90;99.90
34985;DHT22;21190;58.750;17.004;2023-07-02T00:44:30;16.80;99.90
34985;DHT22;21190;58.750;17.004;2023-07-02T00:46:57;16.90;99.90
34985;DHT22;21190;58.750;17.004;2023-07-02T00:49:24;16.90;99.90
34985;DHT22;21190;58.750;17.004;2023-07-02T00:51:51;16.90;99.90
34985;DHT22;21190;58.750;17.004;2023-07-02T00:54:18;16.90;99.90
34985;DHT22;21190;58.750;17.004;2023-07-02T00:56:45;17.00;99.90
34985;DHT22;21190;58.750;17.004;2023-07-02T00:59:12;17.00;99.90
34985;DHT22;21190;58.750;17.004;2023-07-02T01:01:39;17.00;99.90
34985;DHT22;21190;58.750;17.004;2023-07-02T01:04:07;17.00;99.90
34985;DHT22;21190;58.750;17.004;2023-07-02T01:06:36;17.10;99.90
34985;DHT22;21190;58.750;17.004;2023-07-02T01:09:05;17.10;99.90
34985;DHT22;21190;58.750;17.004;2023-07-02T01:12:04;17.10;99.90
34985;DHT22;21190;58.750;17.004;2023-07-02T01:14:38;17.10;99.90
34985;DHT22;21190;58.750;17.004;2023-07-02T01:17:06;17.10;99.90
34985;DHT22;21190;58.750;17.004;2023-07-02T01:19:57;17.10;99.90
34985;DHT22;21190;58.750;17.004;2023-07-02T01:22:27;17.10;99.90
34985;DHT22;21190;58.750;17.004;2023-07-02T01:24:55;17.10;99.90
34985;DHT22;21190;58.750;17.004;2023-07-02T01:27:22;17.10;99.90
34985;DHT22;21190;58.750;17.004;2023-07-02T01:29:53;17.10;99.90
34985;DHT22;21190;58.750;17.004;2023-07-02T01:32:20;17.10;99.90
34985;DHT22;21190;58.750;17.004;2023-07-02T01:34:48;17.10;99.90
34985;DHT22;21190;58.750;17.004;2023-07-02T01:37:16;17.10;99.90
34985;DHT22;21190;58.750;17.004;2023-07-02T01:39:46;17.20;99.90
34985;DHT22;21190;58.750;17.004;2023-07-02T01:42:15;17.20;99.90
34985;DHT22;21190;58.750;17.004;2023-07-02T01:44:48;17.20;99.90
34985;DHT22;21190;58.750;17.004;2023-07-02T01:47:16;17.20;99.90
34985;DHT22;21190;58.750;17.004;2023-07-02T01:49:43;17.20;99.90
34985;DHT22;21190;58.750;17.004;2023-07-02T01:52:10;17.20;99.90
34985;DHT22;21190;58.750;17.004;2023-07-02T01:54:37;17.20;99.90
34985;DHT22;21190;58.750;17.004;2023-07-02T01:57:05;17.20;99.90
34985;DHT22;21190;58.750;17.004;2023-07-02T01:59:32;17.20;99.90
34985;DHT22;21190;58.750;17.004;2023-07-02T02:01:59;17.10;99.90
34985;DHT22;21190;58.750;17.004;2023-07-02T02:04:26;17.10;99.90
34985;DHT22;21190;58.750;17.004;2023-07-02T02:06:53;17.10;99.90
34985;DHT22;21190;58.750;17.004;2023-07-02T02:09:20;17.00;99.90
34985;DHT22;21190;58.750;17.004;2023-07-02T02:11:51;17.00;99.90
34985;DHT22;21190;58.750;17.004;2023-07-02T02:14:19;17.00;99.90
34985;DHT22;21190;58.750;17.004;2023-07-02T02:16:46;17.00;99.90
34985;DHT22;21190;58.750;17.004;2023-07-02T02:19:14;17.00;99.90
34985;DHT22;21190;58.750;17.004;2023-07-02T02:21:42;17.00;99.90
34985;DHT22;21190;58.750;17.004;2023-07-02T02:24:10;16.90;99.90
34985;DHT22;21190;58.750;17.004;2023-07-02T02:26:37;16.90;99.90
34985;DHT22;21190;58.750;17.004;2023-07-02T02:29:04;16.90;99.90
34985;DHT22;21190;58.750;17.004;2023-07-02T02:31:31;16.90;99.90
34985;DHT22;21190;58.750;17.004;2023-07-02T02:33:58;16.80;99.90
34985;DHT22;21190;58.750;17.004;2023-07-02T02:36:25;16.90;99.90
34985;DHT22;21190;58.750;17.004;2023-07-02T02:38:52;16.80;99.90
34985;DHT22;21190;58.750;17.004;2023-07-02T02:41:19;16.80;99.90
34985;DHT22;21190;58.750;17.004;2023-07-02T02:43:46;16.70;99.90
34985;DHT22;21190;58.750;17.004;2023-07-02T02:46:22;16.70;99.90
34985;DHT22;21190;58.750;17.004;2023-07-02T02:48:50;16.80;99.90
34985;DHT22;21190;58.750;17.004;2023-07-02T02:51:18;16.70;99.90
34985;DHT22;21190;58.750;17.004;2023-07-02T02:53:45;16.70;99.90
34985;DHT22;21190;58.750;17.004;2023-07-02T02:56:13;16.70;99.90
34985;DHT22;21190;58.750;17.004;2023-07-02T02:58:40;16.60;99.90
34985;DHT22;21190;58.750;17.004;2023-07-02T03:01:07;16.60;99.90
34985;DHT22;21190;58.750;17.004;2023-07-02T03:03:41;16.60;99.90
34985;DHT22;21190;58.750;17.004;2023-07-02T03:06:17;16.60;99.90
34985;DHT22;21190;58.750;17.004;2023-07-02T03:08:44;16.60;99.90
34985;DHT22;21190;58.750;17.004;2023-07-02T03:11:11;16.60;99.90
34985;DHT22;21190;58.750;17.004;2023-07-02T03:13:38;16.60;99.90
34985;DHT22;21190;58.750;17.004;2023-07-02T03:16:05;16.60;99.90
34985;DHT22;21190;58.750;17.004;2023-07-02T03:18:32;16.60;99.90
34985;DHT22;21190;58.750;17.004;2023-07-02T03:20:59;16.60;99.90
34985;DHT22;21190;58.750;17.004;2023-07-02T03:23:26;16.60;99.90
34985;DHT22;21190;58.750;17.004;2023-07-02T03:25:53;16.70;99.90
34985;DHT22;21190;58.750;17.004;2023-07-02T03:28:20;16.70;99.90
34985;DHT22;21190;58.750;17.004;2023-07-02T03:30:47;16.70;99.90
34985;DHT22;21190;58.750;17.004;2023-07-02T03:33:15;16.70;99.90
34985;DHT22;21190;58.750;17.004;2023-07-02T03:35:42;16.80;99.90
34985;DHT22;21190;58.750;17.004;2023-07-02T03:38:09;16.80;99.90
34985;DHT22;21190;58.750;17.004;2023-07-02T03:40:36;16.80;99.90
34985;DHT22;21190;58.750;17.004;2023-07-02T03:43:03;16.80;99.90
34985;DHT22;21190;58.750;17.004;2023-07-02T03:45:31;16.80;99.90
34985;DHT22;21190;58.750;17.004;2023-07-02T03:47:58;16.90;99.90
34985;DHT22;21190;58.750;17.004;2023-07-02T03:50:25;16.90;99.90
34985;DHT22;21190;58.750;17.004;2023-07-02T03:52:52;16.90;99.90
34985;DHT22;21190;58.750;17.004;2023-07-02T03:55:20;16.90;99.90
34985;DHT22;21190;58.750;17.004;2023-07-02T03:57:47;17.00;99.90
34985;DHT22;21190;58.750;17.004;2023-07-02T04:00:14;16.90;99.90
34985;DHT22;21190;58.750;17.004;2023-07-02T04:02:41;16.90;99.90
34985;DHT22;21190;58.750;17.004;2023-07-02T04:05:08;17.00;99.90
34985;DHT22;21190;58.750;17.004;2023-07-02T04:07:35;16.90;99.90
34985;DHT22;21190;58.750;17.004;2023-07-02T04:10:03;16.90;99.90
34985;DHT22;21190;58.750;17.004;2023-07-02T04:12:31;16.90;99.90
34985;DHT22;21190;58.750;17.004;2023-07-02T04:14:58;16.80;99.90
34985;DHT22;21190;58.750;17.004;2023-07-02T04:17:25;16.80;99.90
34985;DHT22;21190;58.750;17.004;2023-07-02T04:19:54;16.80;99.90
34985;DHT22;21190;58.750;17.004;2023-07-02T04:22:21;16.80;99.90
34985;DHT22;21190;58.750;17.004;2023-07-02T04:24:48;16.80;99.90
34985;DHT22;21190;58.750;17.004;2023-07-02T04:27:17;16.80;99.90
34985;DHT22;21190;58.750;17.004;2023-07-02T04:30:05;16.80;99.90
34985;DHT22;21190;58.750;17.004;2023-07-02T04:32:32;16.90;99.90
34985;DHT22;21190;58.750;17.004;2023-07-02T04:35:00;16.90;99.90
34985;DHT22;21190;58.750;17.004;2023-07-02T04:37:27;16.90;99.90
34985;DHT22;21190;58.750;17.004;2023-07-02T04:39:55;17.00;99.90
34985;DHT22;21190;58.750;17.004;2023-07-02T04:42:22;17.00;99.90
34985;DHT22;21190;58.750;17.004;2023-07-02T04:44:54;17.00;99.90
34985;DHT22;21190;58.750;17.004;2023-07-02T04:47:22;17.00;99.90
34985;DHT22;21190;58.750;17.004;2023-07-02T04:49:49;17.10;99.90
34985;DHT22;21190;58.750;17.004;2023-07-02T04:52:16;17.10;99.90
34985;DHT22;21190;58.750;17.004;2023-07-02T04:54:43;17.10;99.90
34985;DHT22;21190;58.750;17.004;2023-07-02T04:57:10;17.10;99.90
34985;DHT22;21190;58.750;17.004;2023-07-02T04:59:37;17.00;99.90
34985;DHT22;21190;58.750;17.004;2023-07-02T05:02:04;17.10;99.90
34985;DHT22;21190;58.750;17.004;2023-07-02T05:04:31;17.10;99.90
34985;DHT22;21190;58.750;17.004;2023-07-02T05:06:59;17.20;99.90
34985;DHT22;21190;58.750;17.004;2023-07-02T05:09:26;17.10;99.90
34985;DHT22;21190;58.750;17.004;2023-07-02T05:11:53;17.20;99.90
34985;DHT22;21190;58.750;17.004;2023-07-02T05:14:20;17.20;99.90
34985;DHT22;21190;58.750;17.004;2023-07-02T05:16:47;17.10;99.90
34985;DHT22;21190;58.750;17.004;2023-07-02T05:19:14;17.20;99.90
34985;DHT22;21190;58.750;17.004;2023-07-02T05:21:42;17.20;99.90
34985;DHT22;21190;58.750;17.004;2023-07-02T05:24:09;17.20;99.90
34985;DHT22;21190;58.750;17.004;2023-07-02T05:26:36;17.20;99.90
34985;DHT22;21190;58.750;17.004;2023-07-02T05:29:03;17.20;99.90
34985;DHT22;21190;58.750;17.004;2023-07-02T05:31:30;17.20;99.90
34985;DHT22;21190;58.750;17.004;2023-07-02T05:33:56;17.20;99.90
34985;DHT22;21190;58.750;17.004;2023-07-02T05:36:24;17.10;99.90
34985;DHT22;21190;58.750;17.004;2023-07-02T05:38:50;17.10;99.90
34985;DHT22;21190;58.750;17.004;2023-07-02T05:41:21;17.00;99.90
34985;DHT22;21190;58.750;17.004;2023-07-02T05:43:48;17.00;99.90
34985;DHT22;21190;58.750;17.004;2023-07-02T05:46:15;16.90;99.90
34985;DHT22;21190;58.750;17.004;2023-07-02T05:48:42;16.90;99.90
34985;DHT22;21190;58.750;17.004;2023-07-02T05:51:09;16.90;99.90
34985;DHT22;21190;58.750;17.004;2023-07-02T05:53:37;16.90;99.90
34985;DHT22;21190;58.750;17.004;2023-07-02T05:56:04;16.80;99.90
34985;DHT22;21190;58.750;17.004;2023-07-02T05:58:31;16.80;99.90
34985;DHT22;21190;58.750;17.004;2023-07-02T06:01:13;16.70;99.90
34985;DHT22;21190;58.750;17.004;2023-07-02T06:03:41;16.70;99.90
34985;DHT22;21190;58.750;17.004;2023-07-02T06:06:09;16.60;99.90
34985;DHT22;21190;58.750;17.004;2023-07-02T06:08:36;16.60;99.90
34985;DHT22;21190;58.750;17.004;2023-07-02T06:11:02;16.50;99.90
34985;DHT22;21190;58.750;17.004;2023-07-02T06:13:29;16.60;99.90
34985;DHT22;21190;58.750;17.004;2023-07-02T06:15:56;16.70;99.90
34985;DHT22;21190;58.750;17.004;2023-07-02T06:18:24;16.60;99.90
34985;DHT22;21190;58.750;17.004;2023-07-02T06:20:51;16.50;99.90
34985;DHT22;21190;58.750;17.004;2023-07-02T06:23:18;16.50;99.90
34985;DHT22;21190;58.750;17.004;2023-07-02T06:25:45;16.50;99.90
34985;DHT22;21190;58.750;17.004;2023-07-02T06:28:12;16.50;99.90
34985;DHT22;21190;58.750;17.004;2023-07-02T06:30:39;16.40;99.90
34985;DHT22;21190;58.750;17.004;2023-07-02T06:33:06;16.40;99.90
34985;DHT22;21190;58.750;17.004;2023-07-02T06:35:33;16.40;99.90
34985;DHT22;21190;58.750;17.004;2023-07-02T06:38:00;16.40;99.90
34985;DHT22;21190;58.750;17.004;2023-07-02T06:40:27;16.40;99.90
34985;DHT22;21190;58.750;17.004;2023-07-02T06:42:54;16.30;99.90
34985;DHT22;21190;58.750;17.004;2023-07-02T06:45:20;16.30;99.90
34985;DHT22;21190;58.750;17.004;2023-07-02T06:47:47;16.20;99.90
34985;DHT22;21190;58.750;17.004;2023-07-02T06:50:14;16.30;99.90
34985;DHT22;21190;58.750;17.004;2023-07-02T06:52:41;16.30;99.90
34985;DHT22;21190;58.750;17.004;2023-07-02T06:55:09;16.30;99.90
34985;DHT22;21190;58.750;17.004;2023-07-02T06:57:42;16.20;99.90
34985;DHT22;21190;58.750;17.004;2023-07-02T07:00:10;16.10;99.90
34985;DHT22;21190;58.750;17.004;2023-07-02T07:02:37;16.00;99.90
34985;DHT22;21190;58.750;17.004;2023-07-02T07:05:04;16.00;99.90
34985;DHT22;21190;58.750;17.004;2023-07-02T07:07:32;16.00;99.90
34985;DHT22;21190;58.750;17.004;2023-07-02T07:09:59;16.00;99.90
34985;DHT22;21190;58.750;17.004;2023-07-02T07:12:26;16.00;99.90
34985;DHT22;21190;58.750;17.004;2023-07-02T07:14:53;16.00;99.90
34985;DHT22;21190;58.750;17.004;2023-07-02T07:17:20;16.00;99.90
34985;DHT22;21190;58.750;17.004;2023-07-02T07:19:47;16.10;99.90
34985;DHT22;21190;58.750;17.004;2023-07-02T07:22:14;16.10;99.90
34985;DHT22;21190;58.750;17.004;2023-07-02T07:24:41;16.20;99.90
34985;DHT22;21190;58.750;17.004;2023-07-02T07:27:08;16.20;99.90
34985;DHT22;21190;58.750;17.004;2023-07-02T07:29:35;16.20;99.90
34985;DHT22;21190;58.750;17.004;2023-07-02T07:32:02;16.30;99.90
34985;DHT22;21190;58.750;17.004;2023-07-02T07:34:29;16.20;99.90
34985;DHT22;21190;58.750;17.004;2023-07-02T07:36:56;16.20;99.90
34985;DHT22;21190;58.750;17.004;2023-07-02T07:39:23;16.20;99.90
34985;DHT22;21190;58.750;17.004;2023-07-02T07:41:50;16.20;99.90
34985;DHT22;21190;58.750;17.004;2023-07-02T07:44:17;16.30;99.90
34985;DHT22;21190;58.750;17.004;2023-07-02T07:46:44;16.30;99.90
34985;DHT22;21190;58.750;17.004;2023-07-02T07:49:13;16.40;99.90
34985;DHT22;21190;58.750;17.004;2023-07-02T07:51:40;16.40;99.90
34985;DHT22;21190;58.750;17.004;2023-07-02T07:54:07;16.50;99.90
34985;DHT22;21190;58.750;17.004;2023-07-02T07:56:34;16.60;99.90
34985;DHT22;21190;58.750;17.004;2023-07-02T07:59:01;16.60;99.90
34985;DHT22;21190;58.750;17.004;2023-07-02T08:01:28;16.60;99.90
34985;DHT22;21190;58.750;17.004;2023-07-02T08:03:55;16.70;99.90
34985;DHT22;21190;58.750;17.004;2023-07-02T08:06:22;16.70;99.90
34985;DHT22;21190;58.750;17.004;2023-07-02T08:08:49;16.60;99.90
34985;DHT22;21190;58.750;17.004;2023-07-02T08:11:16;16.70;99.90
34985;DHT22;21190;58.750;17.004;2023-07-02T08:13:43;16.70;99.90
34985;DHT22;21190;58.750;17.004;2023-07-02T08:16:10;16.70;99.90
34985;DHT22;21190;58.750;17.004;2023-07-02T08:18:37;16.60;99.90
34985;DHT22;21190;58.750;17.004;2023-07-02T08:21:04;16.50;99.90
34985;DHT22;21190;58.750;17.004;2023-07-02T08:23:33;16.50;99.90
34985;DHT22;21190;58.750;17.004;2023-07-02T08:26:00;16.60;99.90
34985;DHT22;21190;58.750;17.004;2023-07-02T08:28:28;16.60;99.90
34985;DHT22;21190;58.750;17.004;2023-07-02T08:30:55;16.50;99.90
34985;DHT22;21190;58.750;17.004;2023-07-02T08:33:22;16.50;99.90
34985;DHT22;21190;58.750;17.004;2023-07-02T08:35:49;16.50;99.90
34985;DHT22;21190;58.750;17.004;2023-07-02T08:38:16;16.40;99.90
34985;DHT22;21190;58.750;17.004;2023-07-02T08:40:43;16.50;99.90
34985;DHT22;21190;58.750;17.004;2023-07-02T08:43:10;16.40;99.90
34985;DHT22;21190;58.750;17.004;2023-07-02T08:45:40;16.30;99.90
34985;DHT22;21190;58.750;17.004;2023-07-02T08:48:08;16.30;99.90
34985;DHT22;21190;58.750;17.004;2023-07-02T08:50:35;16.40;99.90
34985;DHT22;21190;58.750;17.004;2023-07-02T08:53:02;16.40;99.90
34985;DHT22;21190;58.750;17.004;2023-07-02T08:55:29;16.40;99.90
34985;DHT22;21190;58.750;17.004;2023-07-02T08:57:57;16.40;99.90
34985;DHT22;21190;58.750;17.004;2023-07-02T09:00:26;16.40;99.90
34985;DHT22;21190;58.750;17.004;2023-07-02T09:02:53;16.40;99.90
34985;DHT22;21190;58.750;17.004;2023-07-02T09:05:20;16.40;99.90
34985;DHT22;21190;58.750;17.004;2023-07-02T09:07:49;16.50;99.90
34985;DHT22;21190;58.750;17.004;2023-07-02T09:13:07;16.40;99.90
34985;DHT22;21190;58.750;17.004;2023-07-02T09:15:36;16.50;99.90
34985;DHT22;21190;58.750;17.004;2023-07-02T09:18:16;16.50;99.90
34985;DHT22;21190;58.750;17.004;2023-07-02T09:20:43;16.60;99.90
34985;DHT22;21190;58.750;17.004;2023-07-02T09:23:11;16.70;99.90
34985;DHT22;21190;58.750;17.004;2023-07-02T09:25:38;16.80;99.90
34985;DHT22;21190;58.750;17.004;2023-07-02T09:28:21;16.90;99.90
34985;DHT22;21190;58.750;17.004;2023-07-02T09:30:55;16.80;99.90
34985;DHT22;21190;58.750;17.004;2023-07-02T09:33:27;16.70;99.90
34985;DHT22;21190;58.750;17.004;2023-07-02T09:35:55;16.80;99.90
34985;DHT22;21190;58.750;17.004;2023-07-02T09:38:22;16.80;99.90
34985;DHT22;21190;58.750;17.004;2023-07-02T09:40:50;16.90;99.90
34985;DHT22;21190;58.750;17.004;2023-07-02T09:43:18;17.00;99.90
34985;DHT22;21190;58.750;17.004;2023-07-02T09:45:50;17.10;99.90
34985;DHT22;21190;58.750;17.004;2023-07-02T09:48:18;17.10;99.90
34985;DHT22;21190;58.750;17.004;2023-07-02T09:50:51;17.20;99.90
34985;DHT22;21190;58.750;17.004;2023-07-02T09:53:19;17.20;99.90
34985;DHT22;21190;58.750;17.004;2023-07-02T09:55:46;17.10;99.90
34985;DHT22;21190;58.750;17.004;2023-07-02T09:58:13;17.00;99.90
34985;DHT22;21190;58.750;17.004;2023-07-02T10:00:41;17.00;99.90
34985;DHT22;21190;58.750;17.004;2023-07-02T10:03:08;17.10;99.90
34985;DHT22;21190;58.750;17.004;2023-07-02T10:05:35;17.20;99.90
34985;DHT22;21190;58.750;17.004;2023-07-02T10:08:13;17.20;99.90
34985;DHT22;21190;58.750;17.004;2023-07-02T10:10:40;17.30;99.90
34985;DHT22;21190;58.750;17.004;2023-07-02T10:13:08;17.30;99.90
34985;DHT22;21190;58.750;17.004;2023-07-02T10:15:35;17.40;99.90
34985;DHT22;21190;58.750;17.004;2023-07-02T10:18:05;17.50;99.90
34985;DHT22;21190;58.750;17.004;2023-07-02T10:20:37;17.50;99.90
34985;DHT22;21190;58.750;17.004;2023-07-02T10:23:09;17.50;99.90
34985;DHT22;21190;58.750;17.004;2023-07-02T10:25:37;17.50;99.90
34985;DHT22;21190;58.750;17.004;2023-07-02T10:28:16;17.60;99.90
34985;DHT22;21190;58.750;17.004;2023-07-02T10:30:43;17.60;99.90
34985;DHT22;21190;58.750;17.004;2023-07-02T10:33:15;17.60;99.90
34985;DHT22;21190;58.750;17.004;2023-07-02T10:35:45;17.60;99.90
34985;DHT22;21190;58.750;17.004;2023-07-02T10:38:22;17.60;99.90
34985;DHT22;21190;58.750;17.004;2023-07-02T10:40:59;17.60;99.90
34985;DHT22;21190;58.750;17.004;2023-07-02T10:43:28;17.60;99.90
34985;DHT22;21190;58.750;17.004;2023-07-02T10:45:58;17.60;99.90
34985;DHT22;21190;58.750;17.004;2023-07-02T10:48:28;17.60;99.90
34985;DHT22;21190;58.750;17.004;2023-07-02T10:50:55;17.60;99.90
34985;DHT22;21190;58.750;17.004;2023-07-02T10:53:23;17.60;99.90
34985;DHT22;21190;58.750;17.004;2023-07-02T10:55:56;17.60;99.90
34985;DHT22;21190;58.750;17.004;2023-07-02T10:58:25;17.60;99.90
34985;DHT22;21190;58.750;17.004;2023-07-02T11:00:52;17.60;99.90
34985;DHT22;21190;58.750;17.004;2023-07-02T11:03:21;17.50;99.90
34985;DHT22;21190;58.750;17.004;2023-07-02T11:05:49;17.40;99.90
34985;DHT22;21190;58.750;17.004;2023-07-02T11:08:17;17.30;99.90
34985;DHT22;21190;58.750;17.004;2023-07-02T11:10:45;17.10;99.90
34985;DHT22;21190;58.750;17.004;2023-07-02T11:13:16;17.00;99.90
34985;DHT22;21190;58.750;17.004;2023-07-02T11:15:44;17.00;99.90
34985;DHT22;21190;58.750;17.004;2023-07-02T11:18:17;16.90;99.90
34985;DHT22;21190;58.750;17.004;2023-07-02T11:20:46;16.90;99.90
34985;DHT22;21190;58.750;17.004;2023-07-02T11:23:24;16.90;99.90
34985;DHT22;21190;58.750;17.004;2023-07-02T11:26:01;16.90;99.90
34985;DHT22;21190;58.750;17.004;2023-07-02T11:28:31;17.00;99.90
34985;DHT22;21190;58.750;17.004;2023-07-02T11:30:58;17.00;99.90
34985;DHT22;21190;58.750;17.004;2023-07-02T11:33:36;17.00;99.90
34985;DHT22;21190;58.750;17.004;2023-07-02T11:36:05;17.00;99.90
34985;DHT22;21190;58.750;17.004;2023-07-02T11:38:34;17.00;99.90
34985;DHT22;21190;58.750;17.004;2023-07-02T11:41:05;17.00;99.90
34985;DHT22;21190;58.750;17.004;2023-07-02T11:43:32;17.00;99.90
34985;DHT22;21190;58.750;17.004;2023-07-02T11:45:59;17.00;99.90
34985;DHT22;21190;58.750;17.004;2023-07-02T11:48:26;17.10;99.90
34985;DHT22;21190;58.750;17.004;2023-07-02T11:50:53;17.00;99.90
34985;DHT22;21190;58.750;17.004;2023-07-02T11:53:20;16.90;99.90
34985;DHT22;21190;58.750;17.004;2023-07-02T11:55:47;16.70;99.90
34985;DHT22;21190;58.750;17.004;2023-07-02T11:58:15;16.60;99.90
34985;DHT22;21190;58.750;17.004;2023-07-02T12:00:42;16.60;99.90
34985;DHT22;21190;58.750;17.004;2023-07-02T12:03:09;16.60;99.90
34985;DHT22;21190;58.750;17.004;2023-07-02T12:05:36;16.70;99.90
34985;DHT22;21190;58.750;17.004;2023-07-02T12:08:04;16.80;99.90
34985;DHT22;21190;58.750;17.004;2023-07-02T12:10:31;16.90;99.90
34985;DHT22;21190;58.750;17.004;2023-07-02T12:12:57;16.80;99.90
34985;DHT22;21190;58.750;17.004;2023-07-02T12:15:24;17.00;99.90
34985;DHT22;21190;58.750;17.004;2023-07-02T12:17:51;17.00;99.90
34985;DHT22;21190;58.750;17.004;2023-07-02T12:20:18;17.10;99.90
34985;DHT22;21190;58.750;17.004;2023-07-02T12:22:45;17.20;99.90
34985;DHT22;21190;58.750;17.004;2023-07-02T12:25:12;17.20;99.90
34985;DHT22;21190;58.750;17.004;2023-07-02T12:27:39;17.20;99.90
34985;DHT22;21190;58.750;17.004;2023-07-02T12:30:07;17.30;99.90
34985;DHT22;21190;58.750;17.004;2023-07-02T12:32:34;17.30;99.90
34985;DHT22;21190;58.750;17.004;2023-07-02T12:35:01;17.40;99.90
34985;DHT22;21190;58.750;17.004;2023-07-02T12:37:29;17.50;99.90
34985;DHT22;21190;58.750;17.004;2023-07-02T12:39:56;17.60;99.90
34985;DHT22;21190;58.750;17.004;2023-07-02T12:42:22;17.70;99.90
34985;DHT22;21190;58.750;17.004;2023-07-02T12:44:49;17.70;99.90
34985;DHT22;21190;58.750;17.004;2023-07-02T12:47:16;17.70;99.90
34985;DHT22;21190;58.750;17.004;2023-07-02T12:49:43;17.70;99.90
34985;DHT22;21190;58.750;17.004;2023-07-02T12:52:10;17.70;99.90
34985;DHT22;21190;58.750;17.004;2023-07-02T12:54:37;17.70;99.90
34985;DHT22;21190;58.750;17.004;2023-07-02T12:57:05;17.70;99.90
34985;DHT22;21190;58.750;17.004;2023-07-02T12:59:32;17.80;99.90
34985;DHT22;21190;58.750;17.004;2023-07-02T13:01:59;17.80;99.90
34985;DHT22;21190;58.750;17.004;2023-07-02T13:04:26;17.90;99.90
34985;DHT22;21190;58.750;17.004;2023-07-02T13:06:54;18.00;99.90
34985;DHT22;21190;58.750;17.004;2023-07-02T13:09:21;18.00;99.90
34985;DHT22;21190;58.750;17.004;2023-07-02T13:11:47;18.00;99.90
34985;DHT22;21190;58.750;17.004;2023-07-02T13:14:14;18.20;99.90
34985;DHT22;21190;58.750;17.004;2023-07-02T13:16:42;18.40;99.90
34985;DHT22;21190;58.750;17.004;2023-07-02T13:19:09;18.50;99.90
34985;DHT22;21190;58.750;17.004;2023-07-02T13:21:36;18.60;99.90
34985;DHT22;21190;58.750;17.004;2023-07-02T13:24:03;18.80;99.90
34985;DHT22;21190;58.750;17.004;2023-07-02T13:26:30;19.00;99.90
34985;DHT22;21190;58.750;17.004;2023-07-02T13:28:57;19.00;99.90
34985;DHT22;21190;58.750;17.004;2023-07-02T13:31:24;19.00;99.90
34985;DHT22;21190;58.750;17.004;2023-07-02T13:33:51;19.10;99.90
34985;DHT22;21190;58.750;17.004;2023-07-02T13:36:18;19.10;99.90
34985;DHT22;21190;58.750;17.004;2023-07-02T13:38:45;19.10;99.90
34985;DHT22;21190;58.750;17.004;2023-07-02T13:41:12;19.10;99.90
34985;DHT22;21190;58.750;17.004;2023-07-02T13:43:39;19.10;99.90
34985;DHT22;21190;58.750;17.004;2023-07-02T13:46:06;19.20;99.90
34985;DHT22;21190;58.750;17.004;2023-07-02T13:48:33;19.30;99.90
34985;DHT22;21190;58.750;17.004;2023-07-02T13:51:01;19.50;99.90
34985;DHT22;21190;58.750;17.004;2023-07-02T13:53:28;19.60;99.90
34985;DHT22;21190;58.750;17.004;2023-07-02T13:55:55;19.60;99.90
34985;DHT22;21190;58.750;17.004;2023-07-02T13:58:23;19.60;99.90
34985;DHT22;21190;58.750;17.004;2023-07-02T14:00:56;19.60;99.90
34985;DHT22;21190;58.750;17.004;2023-07-02T14:03:23;19.60;99.90
34985;DHT22;21190;58.750;17.004;2023-07-02T14:05:50;19.70;99.90
34985;DHT22;21190;58.750;17.004;2023-07-02T14:08:18;19.90;99.90
34985;DHT22;21190;58.750;17.004;2023-07-02T14:10:45;19.80;99.90
34985;DHT22;21190;58.750;17.004;2023-07-02T14:13:13;19.80;99.90
34985;DHT22;21190;58.750;17.004;2023-07-02T14:15:40;19.70;99.90
34985;DHT22;21190;58.750;17.004;2023-07-02T14:18:07;19.60;99.90
34985;DHT22;21190;58.750;17.004;2023-07-02T14:20:34;19.60;99.90
34985;DHT22;21190;58.750;17.004;2023-07-02T14:23:01;19.60;99.90
34985;DHT22;21190;58.750;17.004;2023-07-02T14:25:28;19.70;99.90
34985;DHT22;21190;58.750;17.004;2023-07-02T14:28:08;19.70;99.90
34985;DHT22;21190;58.750;17.004;2023-07-02T14:30:36;19.80;99.90
34985;DHT22;21190;58.750;17.004;2023-07-02T14:33:04;19.70;99.90
34985;DHT22;21190;58.750;17.004;2023-07-02T14:35:31;19.70;99.90
34985;DHT22;21190;58.750;17.004;2023-07-02T14:37:58;19.70;99.90
34985;DHT22;21190;58.750;17.004;2023-07-02T14:40:25;19.90;99.90
34985;DHT22;21190;58.750;17.004;2023-07-02T14:42:52;19.90;99.90
34985;DHT22;21190;58.750;17.004;2023-07-02T14:45:19;20.10;99.90
34985;DHT22;21190;58.750;17.004;2023-07-02T14:47:47;20.20;99.90
34985;DHT22;21190;58.750;17.004;2023-07-02T14:50:14;20.20;99.90
34985;DHT22;21190;58.750;17.004;2023-07-02T14:52:44;20.20;99.90
34985;DHT22;21190;58.750;17.004;2023-07-02T14:55:11;20.10;99.90
34985;DHT22;21190;58.750;17.004;2023-07-02T14:57:38;20.10;99.90
34985;DHT22;21190;58.750;17.004;2023-07-02T15:00:05;19.90;99.90
34985;DHT22;21190;58.750;17.004;2023-07-02T15:02:33;19.70;99.90
34985;DHT22;21190;58.750;17.004;2023-07-02T15:05:00;19.70;99.90
34985;DHT22;21190;58.750;17.004;2023-07-02T15:07:27;19.60;99.90
34985;DHT22;21190;58.750;17.004;2023-07-02T15:09:54;19.40;99.90
34985;DHT22;21190;58.750;17.004;2023-07-02T15:12:21;19.10;99.90
34985;DHT22;21190;58.750;17.004;2023-07-02T15:14:48;19.00;99.90
34985;DHT22;21190;58.750;17.004;2023-07-02T15:17:15;19.00;99.90
34985;DHT22;21190;58.750;17.004;2023-07-02T15:19:42;19.10;99.90
34985;DHT22;21190;58.750;17.004;2023-07-02T15:22:09;19.20;99.90